Time;durP1;ratioP1;P1;durP2;ratioP2;P2;SDS_P1;SDS_P2;PMS_P1;PMS_P2;Temp;Humidity;BMP_temperature;BMP_pressure;BME280_temperature;BME280_humidity;BME280_pressure;Samples;Min_cycle;Max_cycle;Signal;HPM_P1;HPM_P2
2023/05/23 00:02:07;;;;;;;9.27;6.72;;;;;;;18.77;55.59;101750.59;5017142;28;123998;-70
2023/05/23 00:04:37;;;;;;;11.85;7.10;;;;;;;18.74;55.52;101750.81;5011284;28;124348;-69
2023/05/23 00:07:04;;;;;;;10.43;6.97;;;;;;;18.72;55.32;101741.97;4997380;28;114749;-71
2023/05/23 00:09:31;;;;;;;8.88;6.45;;;;;;;18.69;55.39;101742.22;4998923;28;114265;-70
2023/05/23 00:11:59;;;;;;;12.05;7.32;;;;;;;18.67;55.37;101749.50;5011462;28;124005;-70
2023/05/23 00:14:30;;;;;;;9.35;6.75;;;;;;;18.65;55.37;101743.38;4995707;28;122689;-70
2023/05/23 00:16:58;;;;;;;12.38;6.78;;;;;;;18.65;55.50;101751.41;5012926;28;115182;-71
2023/05/23 00:19:25;;;;;;;10.00;7.03;;;;;;;18.64;55.49;101749.69;4994538;28;114953;-71
2023/05/23 00:21:55;;;;;;;11.85;7.65;;;;;;;18.64;55.55;101747.00;5014256;28;124924;-70
2023/05/23 00:24:23;;;;;;;11.13;6.97;;;;;;;18.64;55.72;101749.69;5000163;28;124666;-71
2023/05/23 00:26:50;;;;;;;12.73;8.13;;;;;;;18.64;55.72;101760.41;5019722;28;114091;-70
2023/05/23 00:29:18;;;;;;;12.10;7.70;;;;;;;18.66;56.05;101758.50;5021377;28;114688;-71
2023/05/23 00:31:46;;;;;;;11.70;7.78;;;;;;;18.69;56.09;101758.31;4997186;28;123704;-70
2023/05/23 00:34:16;;;;;;;10.75;7.65;;;;;;;18.71;56.05;101761.75;5019450;28;123888;-71
2023/05/23 00:36:46;;;;;;;10.25;7.43;;;;;;;18.72;56.21;101763.44;4996541;28;113375;-70
2023/05/23 00:39:18;;;;;;;12.45;7.63;;;;;;;18.74;56.11;101761.56;4981472;28;113420;-70
2023/05/23 00:41:51;;;;;;;9.77;7.38;;;;;;;18.74;56.01;101766.94;5007399;28;124372;-71
2023/05/23 00:44:22;;;;;;;;;;;;;;;18.72;55.73;101767.97;4989819;28;123185;-72
2023/05/23 00:46:53;;;;;;;10.98;7.82;;;;;;;18.71;56.11;101777.84;5037967;28;115070;-71
2023/05/23 00:49:22;;;;;;;10.07;7.28;;;;;;;18.70;56.11;101770.75;4981591;28;113686;-70
2023/05/23 00:51:50;;;;;;;10.07;6.95;;;;;;;18.68;56.10;101772.66;5012790;28;124287;-71
2023/05/23 00:54:23;;;;;;;10.73;7.50;;;;;;;18.66;56.17;101774.59;4990782;28;123771;-70
2023/05/23 00:56:51;;;;;;;11.45;7.70;;;;;;;18.65;56.21;101772.88;4979427;28;113378;-70
2023/05/23 00:59:20;;;;;;;8.95;6.60;;;;;;;18.64;56.15;101765.78;5013801;28;114168;-70
2023/05/23 01:01:49;;;;;;;12.32;7.25;;;;;;;18.62;56.12;101773.06;5013959;28;124320;-70
2023/05/23 01:04:18;;;;;;;9.13;6.60;;;;;;;18.58;56.29;101767.03;5000862;28;123945;-70
2023/05/23 01:06:47;;;;;;;10.30;6.57;;;;;;;18.59;56.13;101767.88;5013417;28;115636;-71
2023/05/23 01:09:16;;;;;;;10.18;6.35;;;;;;;18.60;56.08;101769.63;4995154;28;116664;-70
2023/05/23 01:12:18;;;;;;;12.05;6.75;;;;;;;18.57;56.24;101767.13;4983922;28;123222;-70
2023/05/23 01:15:07;;;;;;;13.20;6.75;;;;;;;18.57;56.17;101769.81;4977478;28;124405;-70
2023/05/23 01:18:03;;;;;;;11.10;6.80;;;;;;;18.57;56.09;101775.19;4966902;28;114405;-71
2023/05/23 01:20:37;;;;;;;10.35;6.90;;;;;;;18.55;56.05;101787.84;4977998;28;113154;-70
2023/05/23 01:23:19;;;;;;;12.25;7.25;;;;;;;18.55;56.18;101782.47;5009558;28;124421;-70
2023/05/23 01:26:10;;;;;;;13.32;7.30;;;;;;;18.53;56.15;101773.66;5006932;28;123901;-69
2023/05/23 01:28:47;;;;;;;9.98;7.13;;;;;;;18.51;55.74;101780.94;4998964;28;114697;-71
2023/05/23 01:31:16;;;;;;;14.13;7.43;;;;;;;18.46;56.25;101787.47;5001208;28;113903;-70
2023/05/23 01:33:45;;;;;;;13.07;7.07;;;;;;;18.44;56.30;101781.34;5004354;27;124531;-70
2023/05/23 01:36:14;;;;;;;12.27;7.47;;;;;;;18.43;56.44;101790.34;5009654;28;123865;-70
2023/05/23 01:38:41;;;;;;;14.30;7.32;;;;;;;18.45;56.36;101792.94;4997263;28;113454;-70
2023/05/23 01:41:09;;;;;;;12.07;7.65;;;;;;;18.41;56.52;101786.03;4977114;28;113319;-70
2023/05/23 01:43:37;;;;;;;11.82;7.00;;;;;;;18.37;56.49;101790.72;5010411;28;124014;-70
2023/05/23 01:46:06;;;;;;;12.95;6.60;;;;;;;18.35;56.44;101798.00;4993321;28;124425;-70
2023/05/23 01:48:35;;;;;;;11.50;6.70;;;;;;;18.31;56.40;101796.50;5002167;28;113386;-71
2023/05/23 01:51:03;;;;;;;13.05;7.13;;;;;;;18.28;56.62;101807.41;5008985;28;113894;-70
2023/05/23 01:53:33;;;;;;;14.82;7.70;;;;;;;18.24;56.59;101808.56;4983401;28;124052;-70
2023/05/23 01:56:02;;;;;;;14.68;8.60;;;;;;;18.21;56.64;101801.53;4977266;28;124203;-70
2023/05/23 01:58:29;;;;;;;16.65;8.18;;;;;;;18.20;56.82;101801.66;5012208;28;115075;-71
2023/05/23 02:00:57;;;;;;;13.73;7.20;;;;;;;18.18;56.83;101806.25;5001181;28;114735;-69
2023/05/23 02:03:24;;;;;;;13.35;7.45;;;;;;;18.16;56.87;101818.88;5008727;28;123636;-71
2023/05/23 02:05:52;;;;;;;13.50;8.02;;;;;;;18.14;56.78;101816.31;5000336;28;123202;-71
2023/05/23 02:08:19;;;;;;;14.98;8.20;;;;;;;18.11;56.86;101815.63;4996340;28;112930;-70
2023/05/23 02:10:46;;;;;;;13.60;8.10;;;;;;;18.09;57.16;101819.25;5018031;28;113786;-71
2023/05/23 02:13:13;;;;;;;15.48;7.63;;;;;;;18.08;57.01;101814.88;4982861;28;124625;-70
2023/05/23 02:15:40;;;;;;;12.48;8.35;;;;;;;18.08;57.07;101819.34;5006558;28;123713;-70
2023/05/23 02:18:08;;;;;;;14.35;7.63;;;;;;;18.05;57.21;101817.72;4990928;28;112993;-71
2023/05/23 02:20:39;;;;;;;15.10;8.00;;;;;;;18.04;57.24;101815.97;4992832;28;113999;-70
2023/05/23 02:23:06;;;;;;;13.60;7.28;;;;;;;18.03;57.36;101819.63;4976709;28;123141;-70
2023/05/23 02:25:36;;;;;;;15.20;7.75;;;;;;;18.03;57.11;101821.47;4996860;28;123123;-70
2023/05/23 02:28:05;;;;;;;12.57;6.97;;;;;;;18.00;57.18;101825.16;4999143;28;113649;-71
2023/05/23 02:30:33;;;;;;;11.57;7.50;;;;;;;17.97;57.15;101825.38;4995945;28;113536;-71
2023/05/23 02:33:05;;;;;;;11.82;6.90;;;;;;;17.96;57.48;101825.47;4993859;28;122918;-70
2023/05/23 02:35:33;;;;;;;11.15;6.88;;;;;;;17.94;57.24;101830.91;5013241;28;124620;-70
2023/05/23 02:38:00;;;;;;;10.90;6.70;;;;;;;17.91;57.38;101836.44;4994626;28;113432;-70
2023/05/23 02:40:27;;;;;;;10.82;7.05;;;;;;;17.88;57.45;101831.28;4979536;28;113233;-69
2023/05/23 02:42:56;;;;;;;12.80;6.53;;;;;;;17.86;57.56;101833.19;4998329;28;123128;-71
2023/05/23 02:45:23;;;;;;;13.30;6.45;;;;;;;17.84;57.64;101832.41;4981854;28;123133;-71
2023/05/23 02:47:50;;;;;;;10.70;6.60;;;;;;;17.81;57.53;101829.88;5000106;28;114571;-70
2023/05/23 02:50:18;;;;;;;13.45;6.82;;;;;;;17.79;57.86;101826.44;5012086;28;115531;-70
2023/05/23 02:52:45;;;;;;;12.48;6.93;;;;;;;17.76;57.78;101834.66;4995380;28;123123;-70
2023/05/23 02:55:12;;;;;;;13.63;7.20;;;;;;;17.75;57.80;101840.97;5003403;28;123052;-70
2023/05/23 02:57:45;;;;;;;12.52;7.10;;;;;;;17.73;57.79;101837.53;5002641;28;96831;-71
2023/05/23 03:00:12;;;;;;;11.25;6.63;;;;;;;17.71;58.14;101829.59;4986060;28;113261;-70
2023/05/23 03:02:41;;;;;;;10.93;6.72;;;;;;;17.69;57.82;101832.34;5000860;28;123244;-71
2023/05/23 03:05:09;;;;;;;13.65;7.35;;;;;;;17.67;57.84;101834.25;4997612;28;122742;-71
2023/05/23 03:07:36;;;;;;;12.02;7.07;;;;;;;17.66;57.91;101832.50;4995197;28;113097;-71
2023/05/23 03:10:04;;;;;;;16.83;8.02;;;;;;;17.66;58.22;101832.50;4981956;28;113600;-71
2023/05/23 03:12:31;;;;;;;11.80;7.13;;;;;;;17.67;58.18;101839.63;5001816;28;123706;-70
2023/05/23 03:14:59;;;;;;;13.48;7.30;;;;;;;17.67;58.11;101834.25;4989993;28;122870;-70
2023/05/23 03:17:26;;;;;;;13.10;7.15;;;;;;;17.66;58.06;101837.88;4987654;28;113575;-71
2023/05/23 03:19:56;;;;;;;11.85;6.75;;;;;;;17.63;58.05;101843.44;5015990;28;114107;-70
2023/05/23 03:22:23;;;;;;;13.57;7.38;;;;;;;17.63;58.19;101842.53;4971005;28;123343;-70
2023/05/23 03:24:50;;;;;;;11.93;6.72;;;;;;;17.62;58.06;101841.69;4977471;28;123441;-70
2023/05/23 03:27:17;;;;;;;10.82;6.95;;;;;;;17.62;58.52;101841.69;4997159;28;113761;-70
2023/05/23 03:29:45;;;;;;;11.35;7.20;;;;;;;17.61;58.15;101848.03;5016804;28;113776;-70
2023/05/23 03:32:12;;;;;;;14.23;7.40;;;;;;;17.60;58.38;101854.31;4995225;28;123991;-71
2023/05/23 03:34:39;;;;;;;11.98;7.15;;;;;;;17.59;58.33;101847.22;5012407;28;123966;-70
2023/05/23 03:37:07;;;;;;;13.10;6.82;;;;;;;17.58;58.46;101856.22;5017033;28;115178;-70
2023/05/23 03:39:34;;;;;;;12.05;7.30;;;;;;;17.57;58.60;101853.63;5022792;28;114887;-70
2023/05/23 03:42:04;;;;;;;10.13;6.88;;;;;;;17.55;58.63;101864.44;4991783;28;123606;-70
2023/05/23 03:44:31;;;;;;;13.43;6.57;;;;;;;17.54;58.81;101854.69;4987994;28;122864;-70
2023/05/23 03:46:58;;;;;;;13.32;6.47;;;;;;;17.50;58.92;101853.16;5016619;28;114110;-70
2023/05/23 03:49:25;;;;;;;12.88;7.05;;;;;;;17.49;58.98;101862.97;5017397;28;113761;-70
2023/05/23 03:51:52;;;;;;;15.23;7.38;;;;;;;17.49;59.13;101867.47;5010651;28;124903;-70
2023/05/23 03:54:20;;;;;;;11.05;6.80;;;;;;;17.49;59.06;101856.75;5011356;28;123915;-71
2023/05/23 03:56:47;;;;;;;13.32;6.93;;;;;;;17.49;59.01;101862.13;4999505;28;114307;-70
2023/05/23 03:59:14;;;;;;;12.82;7.32;;;;;;;17.49;59.24;101865.66;4998466;28;113698;-70
2023/05/23 04:01:41;;;;;;;12.23;6.75;;;;;;;17.51;59.08;101868.25;4994062;28;123424;-70
2023/05/23 04:04:09;;;;;;;11.73;7.07;;;;;;;17.52;58.86;101873.53;4998765;28;123690;-70
2023/05/23 04:06:37;;;;;;;11.93;7.10;;;;;;;17.53;59.06;101871.69;4995367;28;113582;-70
2023/05/23 04:09:05;;;;;;;12.80;6.85;;;;;;;17.54;59.16;101876.13;4974147;28;111920;-70
2023/05/23 04:11:36;;;;;;;12.43;6.90;;;;;;;17.54;59.01;101870.75;5004351;28;124554;-70
2023/05/23 04:14:03;;;;;;;13.23;6.90;;;;;;;17.54;58.98;101870.75;4970911;28;124692;-70
2023/05/23 04:16:31;;;;;;;13.00;7.05;;;;;;;17.56;58.94;101878.72;5000108;28;113905;-70
2023/05/23 04:19:01;;;;;;;16.38;7.05;;;;;;;17.55;58.91;101877.81;4993252;28;113917;-70
2023/05/23 04:21:31;;;;;;;11.55;6.85;;;;;;;17.56;59.08;101882.25;4978693;28;122629;-71
2023/05/23 04:24:05;;;;;;;13.23;6.60;;;;;;;17.58;58.89;101872.31;4995266;28;122954;-70
2023/05/23 04:26:35;;;;;;;12.50;6.72;;;;;;;17.61;58.93;101881.97;4994021;28;114519;-70
2023/05/23 04:29:04;;;;;;;13.82;7.07;;;;;;;17.62;58.82;101884.56;4990074;28;114422;-71
2023/05/23 04:31:32;;;;;;;14.93;6.85;;;;;;;17.63;58.84;101885.41;4997190;28;123440;-70
2023/05/23 04:34:01;;;;;;;11.40;7.13;;;;;;;17.64;58.74;101888.00;4997337;28;123938;-70
2023/05/23 04:36:29;;;;;;;14.23;6.63;;;;;;;17.66;59.08;101894.13;4996591;28;114845;-70
2023/05/23 04:38:56;;;;;;;13.15;7.55;;;;;;;17.67;58.95;101895.88;5011143;28;114420;-71
2023/05/23 04:41:23;;;;;;;12.30;7.18;;;;;;;17.69;58.86;101893.97;4989256;28;123306;-71
2023/05/23 04:44:16;;;;;;;14.40;6.90;;;;;;;17.71;58.75;101899.25;4974484;28;124204;-70
2023/05/23 04:46:58;;;;;;;9.85;6.90;;;;;;;17.71;58.82;101889.38;4998405;28;114034;-70
2023/05/23 04:49:33;;;;;;;14.05;6.78;;;;;;;17.73;58.57;101901.84;4995936;28;114046;-70
2023/05/23 04:52:02;;;;;;;14.63;6.88;;;;;;;17.73;58.82;101902.69;5012139;28;124260;-70
2023/05/23 04:54:31;;;;;;;15.35;7.47;;;;;;;17.75;58.76;101905.28;4976206;28;123613;-70
2023/05/23 04:57:02;;;;;;;13.10;6.82;;;;;;;17.76;58.62;101912.34;5003962;28;113717;-70
2023/05/23 04:59:30;;;;;;;14.00;7.20;;;;;;;17.76;58.50;101912.34;4995663;28;113595;-70
2023/05/23 05:01:57;;;;;;;17.02;7.10;;;;;;;17.77;58.94;101914.97;5018010;28;124643;-71
2023/05/23 05:04:25;;;;;;;15.93;7.30;;;;;;;17.78;58.68;101926.53;4996531;28;124065;-70
2023/05/23 05:06:52;;;;;;;14.98;7.30;;;;;;;17.77;58.53;101919.47;4994449;27;113792;-71
2023/05/23 05:09:20;;;;;;;18.10;8.00;;;;;;;17.73;58.55;101921.47;4996275;28;114650;-71
2023/05/23 05:11:49;;;;;;;16.35;6.95;;;;;;;17.70;58.58;101925.16;5002005;28;123606;-70
2023/05/23 05:14:16;;;;;;;21.77;7.40;;;;;;;17.72;58.56;101922.38;4999843;28;122706;-71
2023/05/23 05:16:44;;;;;;;16.33;7.90;;;;;;;17.70;58.51;101930.50;5023574;28;115539;-69
2023/05/23 05:19:12;;;;;;;18.83;8.32;;;;;;;17.67;58.25;101925.34;5007103;28;114200;-70
2023/05/23 05:21:39;;;;;;;16.65;7.78;;;;;;;17.65;58.36;101935.28;5008497;28;123596;-70
2023/05/23 05:24:08;;;;;;;18.67;7.75;;;;;;;17.61;58.41;101936.44;4999638;28;122896;-70
2023/05/23 05:26:36;;;;;;;17.20;7.75;;;;;;;17.58;58.46;101939.28;5002434;28;113342;-70
2023/05/23 05:29:03;;;;;;;19.40;8.18;;;;;;;17.55;58.35;101942.13;4994760;28;113426;-70
2023/05/23 05:31:31;;;;;;;18.67;8.60;;;;;;;17.53;58.36;101954.72;4997490;28;124819;-71
2023/05/23 05:33:59;;;;;;;18.88;8.27;;;;;;;17.49;58.42;101942.47;4998509;28;122599;-70
2023/05/23 05:36:26;;;;;;;18.25;7.63;;;;;;;17.47;58.39;101944.38;4989292;28;115772;-70
2023/05/23 05:38:54;;;;;;;14.45;7.38;;;;;;;17.45;58.48;101946.28;4986052;28;113807;-70
2023/05/23 05:41:22;;;;;;;18.10;7.53;;;;;;;17.43;58.38;101965.09;4996820;28;123382;-70
2023/05/23 05:43:51;;;;;;;16.42;7.38;;;;;;;17.41;58.30;101971.50;5007056;28;124048;-70
2023/05/23 05:46:18;;;;;;;17.42;7.60;;;;;;;17.38;58.42;101966.31;4994622;28;113330;-70
2023/05/23 05:48:46;;;;;;;14.55;6.70;;;;;;;17.34;58.59;101965.63;5004500;28;113318;-70
2023/05/23 05:51:16;;;;;;;16.35;7.00;;;;;;;17.30;58.58;101970.28;4994944;28;123371;-71
2023/05/23 05:53:43;;;;;;;18.15;7.22;;;;;;;17.26;58.57;101974.06;4994913;28;122950;-70
2023/05/23 05:56:11;;;;;;;13.63;6.25;;;;;;;17.23;58.64;101974.22;5005242;28;113827;-70
2023/05/23 05:58:38;;;;;;;14.50;6.40;;;;;;;17.20;58.54;101985.13;4996243;28;113575;-70
2023/05/23 06:01:08;;;;;;;17.63;6.85;;;;;;;17.18;58.90;101986.16;4989141;28;123744;-70
2023/05/23 06:03:35;;;;;;;12.30;6.20;;;;;;;17.16;58.82;101983.56;4976403;28;122877;-70
2023/05/23 06:06:03;;;;;;;15.52;6.60;;;;;;;17.14;58.94;101985.47;4993732;28;114698;-71
2023/05/23 06:08:30;;;;;;;12.80;6.53;;;;;;;17.13;59.09;101989.09;4990670;28;114422;-71
2023/05/23 06:10:57;;;;;;;14.77;6.28;;;;;;;17.09;58.99;101996.41;5012105;28;124920;-70
2023/05/23 06:13:26;;;;;;;13.00;6.07;;;;;;;17.06;59.05;101983.19;4981688;28;123602;-70
2023/05/23 06:15:54;;;;;;;10.80;5.38;;;;;;;17.03;59.21;101998.56;4980729;28;113649;-70
2023/05/23 06:18:22;;;;;;;17.15;6.00;;;;;;;17.00;59.03;102009.44;4992422;28;113558;-70
2023/05/23 06:20:50;;;;;;;12.23;5.55;;;;;;;16.98;58.96;102000.63;4992016;28;123324;-70
2023/05/23 06:23:20;;;;;;;13.07;5.30;;;;;;;16.93;59.16;102001.75;4988377;28;123136;-70
2023/05/23 06:25:49;;;;;;;16.58;5.13;;;;;;;16.92;58.99;102002.66;4984998;28;114511;-71
2023/05/23 06:28:16;;;;;;;12.18;5.72;;;;;;;16.92;59.13;102008.03;4990039;28;112942;-71
2023/05/23 06:30:45;;;;;;;11.13;5.15;;;;;;;16.90;59.04;102004.56;4994689;28;122867;-70
2023/05/23 06:33:12;;;;;;;10.88;4.85;;;;;;;16.87;58.85;102004.72;4986613;28;123133;-70
2023/05/23 06:35:42;;;;;;;14.85;4.38;;;;;;;16.85;58.89;102017.31;5007397;28;114354;-70
2023/05/23 06:38:09;;;;;;;14.43;5.10;;;;;;;16.83;59.00;102013.88;5002046;28;114249;-69
2023/05/23 06:40:36;;;;;;;11.73;4.80;;;;;;;16.82;59.05;102009.47;5011046;28;123926;-70
2023/05/23 06:43:04;;;;;;;12.60;5.25;;;;;;;16.85;59.03;102011.97;4989572;28;123600;-70
2023/05/23 06:45:39;;;;;;;15.23;5.43;;;;;;;16.86;58.88;102024.41;4984159;28;115668;-71
2023/05/23 06:48:06;;;;;;;12.98;4.53;;;;;;;16.87;58.88;102015.44;5011304;28;114222;-72
2023/05/23 06:50:35;;;;;;;10.23;3.70;;;;;;;16.87;58.78;102026.13;4992066;28;124279;-72
2023/05/23 06:53:03;;;;;;;10.93;3.80;;;;;;;16.87;58.83;102026.13;4992300;28;124109;-73
2023/05/23 06:55:32;;;;;;;9.20;3.45;;;;;;;16.88;58.67;102035.91;4972742;28;114943;-70
2023/05/23 06:58:02;;;;;;;16.77;4.68;;;;;;;16.90;58.83;102036.69;4989625;28;114648;-70
2023/05/23 07:00:30;;;;;;;11.85;4.95;;;;;;;16.90;58.57;102047.38;4972481;28;122260;-70
2023/05/23 07:03:08;;;;;;;11.48;4.82;;;;;;;16.88;58.06;102043.06;5001436;28;123059;-70
2023/05/23 07:05:35;;;;;;;15.48;4.53;;;;;;;16.85;58.07;102045.91;4988843;28;113173;-70
2023/05/23 07:08:09;;;;;;;10.02;4.38;;;;;;;16.80;57.88;102039.88;4976312;28;113475;-70
2023/05/23 07:10:40;;;;;;;12.25;5.10;;;;;;;16.77;57.85;102051.63;4986703;28;123139;-70
2023/05/23 07:13:21;;;;;;;10.80;4.15;;;;;;;16.76;57.47;102043.66;5001732;28;124732;-70
2023/05/23 07:15:49;;;;;;;12.20;4.15;;;;;;;16.74;57.34;102057.13;5009769;28;114340;-70
2023/05/23 07:18:19;;;;;;;13.75;4.55;;;;;;;16.73;57.27;102050.91;5007475;28;113172;-70
2023/05/23 07:20:47;;;;;;;12.18;4.53;;;;;;;16.72;57.25;102059.88;4976726;28;123951;-70
2023/05/23 07:23:16;;;;;;;10.65;4.20;;;;;;;16.74;57.05;102063.34;5002147;28;123483;-70
2023/05/23 07:25:45;;;;;;;10.55;4.28;;;;;;;16.75;56.94;102069.56;4988521;28;114368;-70
2023/05/23 07:28:38;;;;;;;10.40;4.25;;;;;;;16.76;56.68;102065.91;4989216;28;113733;-70
2023/05/23 07:31:08;;;;;;;10.68;4.05;;;;;;;16.80;56.67;102062.19;4993839;28;123544;-70
2023/05/23 07:33:36;;;;;;;11.45;4.28;;;;;;;16.84;56.69;102068.22;4979595;28;122965;-70
2023/05/23 07:36:05;;;;;;;12.27;4.53;;;;;;;16.89;56.44;102067.06;4991432;28;112665;-70
2023/05/23 07:38:32;;;;;;;13.32;4.85;;;;;;;16.98;56.37;102062.19;5013666;28;114691;-70
2023/05/23 07:40:59;;;;;;;11.55;5.00;;;;;;;17.04;56.22;102076.09;4978466;28;123655;-70
2023/05/23 07:43:38;;;;;;;8.60;4.60;;;;;;;17.11;56.05;102072.16;4991797;28;121820;-70
2023/05/23 07:46:05;;;;;;;11.48;5.10;;;;;;;17.18;55.69;102072.69;5004829;28;114867;-70
2023/05/23 07:48:32;;;;;;;15.15;5.40;;;;;;;17.23;55.83;102075.97;4993063;28;114042;-70
2023/05/23 07:51:02;;;;;;;17.45;5.30;;;;;;;17.34;55.88;102072.72;4972099;28;124119;-70
2023/05/23 07:53:29;;;;;;;12.45;4.75;;;;;;;17.48;55.81;102070.19;5002762;28;124131;-70
2023/05/23 07:55:57;;;;;;;12.80;4.45;;;;;;;17.67;55.73;102085.25;5011061;28;116418;-71
2023/05/23 07:58:29;;;;;;;8.95;4.57;;;;;;;17.86;55.66;102082.44;4995599;28;113141;-70
2023/05/23 08:00:58;;;;;;;10.85;4.45;;;;;;;18.00;55.22;102093.25;5003722;28;122143;-70
2023/05/23 08:03:45;;;;;;;9.35;4.68;;;;;;;18.12;54.55;102082.78;5017910;28;123920;-71
2023/05/23 08:06:20;;;;;;;8.27;4.38;;;;;;;18.18;54.56;102088.66;5000609;28;113841;-70
2023/05/23 08:08:47;;;;;;;10.55;4.50;;;;;;;18.22;54.16;102086.66;5007142;28;113028;-71
2023/05/23 08:11:15;;;;;;;12.82;4.90;;;;;;;18.22;53.84;102092.03;4994544;28;124731;-71
2023/05/23 08:13:46;;;;;;;9.05;4.20;;;;;;;18.23;53.72;102101.78;5001645;28;123005;-71
2023/05/23 08:16:36;;;;;;;11.40;5.03;;;;;;;18.23;53.66;102099.09;4980886;28;115197;-71
2023/05/23 08:19:09;;;;;;;8.60;4.50;;;;;;;18.21;53.57;102101.03;4984474;28;112915;-71
2023/05/23 08:21:37;;;;;;;10.70;4.72;;;;;;;18.22;53.65;102103.63;4994488;28;123546;-70
2023/05/23 08:24:04;;;;;;;11.82;4.05;;;;;;;18.24;53.50;102106.22;4974201;28;125320;-70
2023/05/23 08:26:34;;;;;;;12.10;4.45;;;;;;;18.26;53.63;102101.63;4992658;28;114189;-71
2023/05/23 08:29:04;;;;;;;8.43;4.57;;;;;;;18.30;53.57;102105.84;4962180;28;113766;-70
2023/05/23 08:31:32;;;;;;;8.77;4.10;;;;;;;18.32;53.38;102109.31;4992135;28;124072;-71
2023/05/23 08:34:03;;;;;;;12.48;4.18;;;;;;;18.32;53.38;102112.00;4996967;28;123542;-70
2023/05/23 08:36:35;;;;;;;11.35;4.25;;;;;;;18.32;53.35;102120.03;4997527;28;114698;-69
2023/05/23 08:39:04;;;;;;;9.45;3.92;;;;;;;18.31;53.05;102107.59;4975881;28;114012;-71
2023/05/23 08:41:35;;;;;;;11.93;4.30;;;;;;;18.30;53.24;102111.22;5015865;28;123225;-71
2023/05/23 08:44:08;;;;;;;8.57;4.00;;;;;;;18.33;53.44;102104.81;4991648;28;123436;-70
2023/05/23 08:46:45;;;;;;;9.20;3.75;;;;;;;18.33;53.35;102115.53;5003604;28;113459;-71
2023/05/23 08:49:21;;;;;;;10.25;3.47;;;;;;;18.33;53.17;102116.41;4982019;28;113159;-71
2023/05/23 08:51:52;;;;;;;9.00;3.90;;;;;;;18.34;53.33;102115.44;5002651;28;123511;-71
2023/05/23 08:54:21;;;;;;;7.68;3.40;;;;;;;18.37;53.15;102126.00;5011225;28;123007;-71
2023/05/23 08:56:48;;;;;;;7.90;3.20;;;;;;;18.39;53.32;102121.44;4997332;28;112347;-71
2023/05/23 08:59:16;;;;;;;7.85;3.65;;;;;;;18.41;53.38;102121.34;5021636;28;112131;-71
2023/05/23 09:01:44;;;;;;;6.70;3.00;;;;;;;18.45;53.47;102129.09;4978313;28;123429;-71
2023/05/23 09:04:14;;;;;;;10.20;3.22;;;;;;;18.51;53.37;102132.41;4981202;28;123658;-71
2023/05/23 09:06:55;;;;;;;6.18;2.20;;;;;;;18.60;53.13;102135.41;5007585;28;114203;-71
2023/05/23 09:09:24;;;;;;;7.03;2.25;;;;;;;18.70;53.12;102146.47;5002738;28;112603;-71
2023/05/23 09:11:54;;;;;;;9.00;2.28;;;;;;;18.79;52.55;102143.25;4972157;28;122780;-70
2023/05/23 09:14:21;;;;;;;10.85;2.10;;;;;;;18.83;52.51;102152.88;5007108;28;125277;-71
2023/05/23 09:17:00;;;;;;;5.45;1.92;;;;;;;18.88;52.35;102133.81;4991824;28;113484;-71
2023/05/23 09:19:30;;;;;;;6.35;1.98;;;;;;;18.94;52.34;102143.34;4991998;28;113192;-71
2023/05/23 09:22:07;;;;;;;6.20;1.92;;;;;;;18.99;51.80;102146.63;5007860;28;123583;-71
2023/05/23 09:24:44;;;;;;;5.63;2.17;;;;;;;18.99;51.60;102146.63;4964263;28;123079;-71
2023/05/23 09:27:11;;;;;;;5.18;1.80;;;;;;;18.99;51.08;102151.97;4991561;28;114504;-72
2023/05/23 09:29:39;;;;;;;6.75;2.03;;;;;;;18.99;51.01;102151.97;4997619;28;114212;-72
2023/05/23 09:32:14;;;;;;;9.60;2.30;;;;;;;19.08;50.86;102146.06;4976404;28;124322;-71
2023/05/23 09:34:55;;;;;;;7.28;2.38;;;;;;;19.22;51.11;102143.38;5004842;28;123344;-71
2023/05/23 09:37:28;;;;;;;6.38;2.20;;;;;;;19.36;50.46;102139.00;4990543;28;113395;-71
2023/05/23 09:39:57;;;;;;;5.43;2.50;;;;;;;19.43;50.27;102145.72;5011563;28;114181;-71
2023/05/23 09:42:31;;;;;;;9.38;2.40;;;;;;;19.45;49.99;102141.97;5008888;28;124667;-72
2023/05/23 09:44:59;;;;;;;10.90;2.63;;;;;;;19.47;50.14;102146.41;4987505;28;125593;-70
2023/05/23 09:47:30;;;;;;;10.98;2.75;;;;;;;19.47;49.89;102147.25;5015217;28;113570;-71
2023/05/23 09:49:57;;;;;;;9.30;2.58;;;;;;;19.47;49.77;102151.78;5011640;28;114303;-71
2023/05/23 09:52:25;;;;;;;9.05;2.58;;;;;;;19.49;49.59;102156.06;4992390;28;123157;-71
2023/05/23 09:54:53;;;;;;;7.78;2.58;;;;;;;19.51;50.00;102148.78;4989939;28;123912;-70
2023/05/23 09:57:33;;;;;;;7.13;2.30;;;;;;;19.57;49.24;102152.91;5003749;28;113883;-71
2023/05/23 10:00:09;;;;;;;9.35;2.17;;;;;;;19.62;49.36;102150.81;4997450;28;113449;-71
2023/05/23 10:02:52;;;;;;;7.45;2.55;;;;;;;19.68;49.08;102149.56;5011560;28;125417;-71
2023/05/23 10:05:45;;;;;;;9.82;2.40;;;;;;;19.70;48.83;102153.00;5009530;28;123877;-71
2023/05/23 10:08:18;;;;;;;12.27;2.72;;;;;;;19.71;49.10;102154.75;5002603;28;114083;-72
2023/05/23 10:10:55;;;;;;;7.95;2.70;;;;;;;19.74;48.95;102165.34;4973618;28;113069;-71
2023/05/23 10:13:26;;;;;;;8.30;2.25;;;;;;;19.74;48.75;102154.59;5010365;28;123691;-72
2023/05/23 10:15:58;;;;;;;12.38;2.25;;;;;;;19.74;48.36;102155.47;5010735;28;123804;-71
2023/05/23 10:18:29;;;;;;;8.40;2.20;;;;;;;19.74;48.27;102150.09;5007644;28;115577;-71
2023/05/23 10:21:05;;;;;;;8.82;2.40;;;;;;;19.70;48.02;102148.50;4979453;28;114816;-72
2023/05/23 10:23:33;;;;;;;8.02;2.45;;;;;;;19.71;48.39;102165.50;5002656;28;124719;-71
2023/05/23 10:26:01;;;;;;;10.05;2.65;;;;;;;19.73;48.23;102163.63;5008389;28;123785;-72
2023/05/23 10:28:29;;;;;;;9.20;2.70;;;;;;;19.77;48.42;102155.25;5006702;28;113809;-71
2023/05/23 10:30:56;;;;;;;11.02;2.70;;;;;;;19.84;48.30;102172.72;5009754;28;114191;-72
2023/05/23 10:33:26;;;;;;;9.65;3.00;;;;;;;19.88;48.06;102173.41;5024231;27;125255;-70
2023/05/23 10:36:09;;;;;;;8.98;2.63;;;;;;;19.90;48.07;102166.09;5009837;28;124885;-70
2023/05/23 10:38:42;;;;;;;7.15;2.15;;;;;;;19.95;48.16;102169.38;5007153;28;114040;-71
2023/05/23 10:41:27;;;;;;;8.43;2.25;;;;;;;20.05;47.96;102169.63;5007538;28;113922;-72
2023/05/23 10:44:07;;;;;;;8.20;2.80;;;;;;;20.13;47.51;102166.47;4996972;28;123832;-72
2023/05/23 10:46:53;;;;;;;11.55;2.75;;;;;;;20.17;47.39;102170.66;5014302;28;124616;-71
2023/05/23 10:49:21;;;;;;;12.23;2.60;;;;;;;20.23;47.10;102167.59;5018256;28;114855;-72
2023/05/23 10:51:50;;;;;;;8.70;2.60;;;;;;;20.31;46.85;102154.50;5009603;28;114098;-71
2023/05/23 10:54:21;;;;;;;8.73;2.78;;;;;;;20.39;46.99;102157.53;5009511;28;124783;-72
2023/05/23 10:57:02;;;;;;;10.40;2.47;;;;;;;20.41;46.64;102155.63;5007229;28;123815;-72
2023/05/23 10:59:29;;;;;;;10.43;3.00;;;;;;;20.49;46.61;102152.41;4995045;28;113507;-71
2023/05/23 11:01:58;;;;;;;13.25;2.60;;;;;;;20.60;46.35;102154.44;4997956;28;113354;-71
2023/05/23 11:04:27;;;;;;;8.32;2.92;;;;;;;20.68;45.98;102157.50;4979664;28;124057;-71
2023/05/23 11:06:55;;;;;;;46.85;5.82;;;;;;;20.78;45.85;102153.22;4995688;28;123919;-71
2023/05/23 11:09:23;;;;;;;11.68;2.50;;;;;;;20.87;45.74;102150.84;5015223;28;115898;-72
2023/05/23 11:11:51;;;;;;;9.90;2.40;;;;;;;20.95;45.18;102148.50;4994014;28;115638;-72
2023/05/23 11:14:33;;;;;;;15.93;3.22;;;;;;;21.03;45.10;102151.53;5016556;28;123661;-72
2023/05/23 11:17:15;;;;;;;9.50;2.67;;;;;;;21.10;44.86;102147.47;4998240;28;123265;-71
2023/05/23 11:20:06;;;;;;;11.30;3.10;;;;;;;21.15;44.77;102150.72;5008941;28;114237;-71
2023/05/23 11:22:34;;;;;;;10.68;2.58;;;;;;;21.17;44.63;102154.16;5009479;28;114110;-71
2023/05/23 11:25:08;;;;;;;10.23;2.55;;;;;;;21.17;44.50;102148.75;5009400;28;123206;-71
2023/05/23 11:27:37;;;;;;;8.95;2.72;;;;;;;21.21;44.23;102144.03;5011371;28;124074;-72